Time;durP1;ratioP1;P1;durP2;ratioP2;P2;SDS_P1;SDS_P2;PMS_P1;PMS_P2;Temp;Humidity;BMP_temperature;BMP_pressure;BME280_temperature;BME280_humidity;BME280_pressure;Samples;Min_cycle;Max_cycle;Signal;HPM_P1;HPM_P2
2021/11/20 00:00:13;;;;;;;4.10;1.52;;;;;;;10.49;71.73;101409.94;4966793;28;20051;-46
2021/11/20 00:02:40;;;;;;;3.53;1.90;;;;;;;10.49;71.56;101409.06;4967806;28;20614;-50
2021/11/20 00:05:09;;;;;;;5.30;1.60;;;;;;;10.50;70.94;101406.50;4970350;28;20050;-48
2021/11/20 00:07:35;;;;;;;4.57;1.88;;;;;;;10.49;71.53;101399.59;4966573;28;20081;-49
2021/11/20 00:10:05;;;;;;;7.13;2.38;;;;;;;10.48;71.50;101397.84;4964407;28;20047;-49
2021/11/20 00:12:33;;;;;;;4.35;1.77;;;;;;;10.49;71.69;101399.59;4964693;28;20050;-47
2021/11/20 00:15:00;;;;;;;4.25;2.35;;;;;;;10.48;71.71;101382.31;4977469;28;20055;-48
2021/11/20 00:17:27;;;;;;;2.60;1.38;;;;;;;10.44;71.28;101385.66;4959942;28;20153;-48
2021/11/20 00:19:53;;;;;;;4.78;1.80;;;;;;;10.46;71.35;101388.28;4974740;28;20058;-49
2021/11/20 00:22:28;;;;;;;4.30;2.08;;;;;;;10.45;71.16;101386.53;4962143;28;20051;-49
2021/11/20 00:25:00;;;;;;;5.05;2.30;;;;;;;10.44;70.79;101377.88;4960127;28;20109;-51
2021/11/20 00:27:36;;;;;;;6.88;2.38;;;;;;;10.45;71.30;101377.06;4974297;28;20114;-47
2021/11/20 00:30:15;;;;;;;6.82;2.42;;;;;;;10.45;71.30;101379.66;4961083;28;20058;-46
2021/11/20 00:32:46;;;;;;;7.68;2.30;;;;;;;10.45;70.92;101381.34;4975101;28;20046;-46
2021/11/20 00:35:16;;;;;;;7.30;2.90;;;;;;;10.43;71.06;101370.94;4978330;28;20454;-47
2021/11/20 00:37:43;;;;;;;4.95;2.50;;;;;;;10.44;70.86;101370.09;4967056;28;20051;-47
2021/11/20 00:40:16;;;;;;;5.18;2.13;;;;;;;10.44;71.10;101375.28;4962923;28;20719;-48
2021/11/20 00:42:43;;;;;;;5.05;1.95;;;;;;;10.47;70.84;101371.91;4957800;28;20047;-52
2021/11/20 00:45:10;;;;;;;6.10;2.67;;;;;;;10.47;70.75;101374.50;4963362;28;20102;-44
2021/11/20 00:47:37;;;;;;;4.07;2.20;;;;;;;10.46;70.83;101362.38;4963144;28;20039;-51
2021/11/20 00:50:07;;;;;;;5.38;2.13;;;;;;;10.46;71.41;101363.25;4974500;28;20050;-51
2021/11/20 00:52:34;;;;;;;3.67;1.40;;;;;;;10.47;71.33;101364.13;4962818;28;20122;-47
2021/11/20 00:55:01;;;;;;;4.47;1.73;;;;;;;10.44;70.84;101356.28;4964060;28;20102;-51
2021/11/20 00:57:28;;;;;;;3.50;1.65;;;;;;;10.43;71.32;101355.38;4963563;28;20097;-47
2021/11/20 00:59:54;;;;;;;7.05;1.92;;;;;;;10.42;70.89;101356.25;4963334;28;20055;-45
2021/11/20 01:02:21;;;;;;;5.18;2.10;;;;;;;10.41;70.92;101349.31;4964602;28;20067;-44
2021/11/20 01:04:48;;;;;;;4.47;1.92;;;;;;;10.37;71.38;101350.09;4962777;28;20054;-46
2021/11/20 01:07:15;;;;;;;6.72;1.95;;;;;;;10.36;71.36;101348.34;4961672;28;20072;-46
2021/11/20 01:09:45;;;;;;;3.72;1.25;;;;;;;10.35;70.82;101354.38;4961832;28;20046;-44
2021/11/20 01:12:14;;;;;;;;;;;;;;;10.19;71.57;101348.91;4965031;28;20588;-51
2021/11/20 01:14:44;;;;;;;3.92;1.52;;;;;;;10.28;71.05;101350.78;4968015;28;20333;-53
2021/11/20 01:17:14;;;;;;;3.95;1.88;;;;;;;10.25;71.22;101349.03;4979958;28;20151;-52
2021/11/20 01:19:43;;;;;;;4.50;1.60;;;;;;;10.25;70.97;101353.31;4963489;28;20051;-52
2021/11/20 01:22:14;;;;;;;6.03;1.75;;;;;;;10.23;71.63;101361.06;4978694;28;20048;-49
2021/11/20 01:24:43;;;;;;;8.23;2.15;;;;;;;10.20;70.96;101355.81;4962535;28;20078;-50
2021/11/20 01:27:12;;;;;;;3.55;1.52;;;;;;;10.19;71.17;101341.13;4963426;28;20399;-47
2021/11/20 01:29:40;;;;;;;7.03;1.85;;;;;;;10.17;70.82;101353.19;4964692;28;20074;-48
2021/11/20 01:32:06;;;;;;;7.75;2.40;;;;;;;10.13;71.48;101351.34;4959062;28;20063;-48
2021/11/20 01:34:33;;;;;;;7.20;2.55;;;;;;;10.10;70.78;101347.00;4966354;28;20061;-48
2021/11/20 01:37:02;;;;;;;6.00;2.70;;;;;;;10.10;70.92;101348.72;4960991;28;20063;-47
2021/11/20 01:39:31;;;;;;;5.95;2.67;;;;;;;10.10;70.92;101346.13;4970862;28;20114;-44
2021/11/20 01:42:03;;;;;;;5.47;2.72;;;;;;;10.08;70.99;101350.38;4980029;28;20435;-49
2021/11/20 01:44:56;;;;;;;6.00;2.53;;;;;;;9.98;71.44;101350.22;4961729;28;20055;-45
2021/11/20 01:47:38;;;;;;;6.13;2.63;;;;;;;9.93;71.13;101346.63;4965791;28;20702;-49
2021/11/20 01:50:10;;;;;;;6.10;2.10;;;;;;;9.96;71.38;101354.47;4980431;28;20051;-46
2021/11/20 01:52:55;;;;;;;7.00;2.97;;;;;;;9.90;71.23;101341.41;4944877;28;20056;-48
2021/11/20 01:55:44;;;;;;;8.57;3.00;;;;;;;9.85;71.29;101343.03;4961503;28;20058;-44
2021/11/20 01:58:34;;;;;;;8.02;2.83;;;;;;;9.83;70.58;101344.72;4965915;28;20063;-51
2021/11/20 02:01:21;;;;;;;;;;;;;;;9.75;71.22;101350.59;4967253;28;20055;-48
2021/11/20 02:03:55;;;;;;;6.47;2.42;;;;;;;9.80;71.19;101340.34;4964583;28;20470;-48
2021/11/20 02:06:30;;;;;;;8.45;2.25;;;;;;;9.82;71.26;101343.84;4967693;28;20533;-46
2021/11/20 02:09:23;;;;;;;5.80;2.55;;;;;;;9.79;70.66;101337.72;4964279;28;20042;-49
2021/11/20 02:11:55;;;;;;;7.80;2.60;;;;;;;9.85;70.63;101341.31;4976482;28;20061;-47
2021/11/20 02:14:24;;;;;;;8.25;2.45;;;;;;;9.85;71.38;101332.66;4960278;28;20070;-50
2021/11/20 02:16:58;;;;;;;5.80;3.40;;;;;;;9.85;70.61;101330.09;4961697;28;20117;-49
2021/11/20 02:19:32;;;;;;;7.70;3.15;;;;;;;9.84;70.43;101330.94;4961439;28;20051;-48
2021/11/20 02:22:06;;;;;;;8.50;2.78;;;;;;;9.80;70.92;101329.13;4975195;28;20109;-49
2021/11/20 02:27:10;;;;;;;9.35;4.47;;;;;;;9.77;70.97;101320.44;5047205;28;20751;-45
2021/11/20 02:32:23;;;;;;;5.78;3.03;;;;;;;9.77;70.43;101315.25;5042886;28;20400;-47
2021/11/20 02:34:52;;;;;;;7.03;2.78;;;;;;;9.79;70.56;101317.03;5001733;28;20104;-51
2021/11/20 02:37:19;;;;;;;5.30;2.35;;;;;;;9.79;71.23;101317.03;5002714;28;20061;-48
2021/11/20 02:39:47;;;;;;;7.65;3.05;;;;;;;9.77;70.71;101315.25;5002109;28;20053;-47
2021/11/20 02:42:19;;;;;;;8.18;2.38;;;;;;;9.76;70.99;101313.53;5004763;28;20061;-52
2021/11/20 02:44:46;;;;;;;6.40;2.50;;;;;;;9.74;71.14;101315.22;5001893;28;20046;-54
2021/11/20 02:47:25;;;;;;;5.18;2.05;;;;;;;9.70;70.75;101312.53;5004922;28;20058;-48
2021/11/20 02:49:52;;;;;;;5.28;2.10;;;;;;;9.71;70.52;101309.97;5005047;28;20100;-49
2021/11/20 02:52:19;;;;;;;7.28;2.38;;;;;;;9.71;70.64;101307.41;5002656;28;20051;-48
2021/11/20 02:54:47;;;;;;;6.85;2.38;;;;;;;9.70;70.22;101300.47;4994316;28;20054;-52
2021/11/20 02:57:18;;;;;;;6.57;2.30;;;;;;;9.70;70.39;101305.66;4996900;28;20499;-50
2021/11/20 02:59:44;;;;;;;6.57;2.45;;;;;;;9.67;70.42;101300.41;4992249;28;20693;-48
2021/11/20 03:02:13;;;;;;;5.90;1.77;;;;;;;9.67;70.94;101303.00;4997445;28;20098;-47
2021/11/20 03:04:42;;;;;;;4.53;1.95;;;;;;;9.67;70.16;101296.94;4992975;28;20042;-50
2021/11/20 03:07:09;;;;;;;8.68;2.22;;;;;;;9.66;70.77;101296.06;4995072;28;20471;-48
2021/11/20 03:09:37;;;;;;;6.13;1.70;;;;;;;9.64;70.33;101283.13;4995510;28;20077;-46
2021/11/20 03:12:06;;;;;;;6.63;2.05;;;;;;;9.65;70.64;101281.38;4997104;28;20076;-44
2021/11/20 03:14:32;;;;;;;7.22;2.22;;;;;;;9.63;70.50;101285.66;4995342;28;21245;-46
2021/11/20 03:17:03;;;;;;;5.40;2.15;;;;;;;9.62;70.51;101283.91;4992270;28;20046;-48
2021/11/20 03:19:36;;;;;;;7.03;2.08;;;;;;;9.57;70.92;101276.06;4995119;28;20058;-48
2021/11/20 03:22:07;;;;;;;5.70;2.67;;;;;;;9.58;70.73;101272.63;4993725;28;20367;-47
2021/11/20 03:24:35;;;;;;;5.63;2.28;;;;;;;9.58;70.82;101279.50;4989786;28;20059;-46
2021/11/20 03:27:03;;;;;;;4.60;2.47;;;;;;;9.54;70.23;101264.75;4994918;28;20050;-52
2021/11/20 03:29:30;;;;;;;3.97;1.42;;;;;;;9.52;70.69;101269.91;4994471;28;20058;-50
2021/11/20 03:31:58;;;;;;;5.22;1.80;;;;;;;9.52;70.64;101268.19;4998457;28;20044;-49
2021/11/20 03:34:28;;;;;;;4.38;1.60;;;;;;;9.46;70.52;101273.22;4991927;28;20050;-48
2021/11/20 03:36:55;;;;;;;5.13;1.25;;;;;;;9.44;70.44;101274.91;4992307;28;20069;-51
2021/11/20 03:39:21;;;;;;;7.80;1.30;;;;;;;9.40;70.76;101265.34;4993823;28;20046;-50
2021/11/20 03:41:48;;;;;;;4.32;1.10;;;;;;;9.40;70.35;101262.75;4989593;28;20385;-49
2021/11/20 03:44:15;;;;;;;2.50;1.05;;;;;;;9.40;70.17;101257.59;4983419;28;20435;-50
2021/11/20 03:46:43;;;;;;;3.42;1.30;;;;;;;9.39;70.67;101261.00;4959600;28;20054;-50
2021/11/20 03:49:10;;;;;;;3.30;1.27;;;;;;;9.37;70.13;101258.41;4975672;28;20513;-47
2021/11/20 03:51:36;;;;;;;1.90;1.10;;;;;;;9.41;70.50;101258.44;4978101;28;20051;-47
2021/11/20 03:54:03;;;;;;;3.17;0.63;;;;;;;9.41;70.81;101245.50;4983036;28;20514;-48
2021/11/20 03:56:32;;;;;;;2.63;0.95;;;;;;;9.41;70.34;101238.66;4979442;28;20053;-47
2021/11/20 03:58:58;;;;;;;5.00;1.00;;;;;;;9.42;70.47;101242.13;4985815;28;20053;-47
2021/11/20 04:01:28;;;;;;;4.50;1.50;;;;;;;9.41;70.77;101238.66;4980695;28;20105;-54
2021/11/20 04:03:55;;;;;;;2.15;1.02;;;;;;;9.40;70.55;101226.56;4979582;28;20045;-50
2021/11/20 04:06:22;;;;;;;3.78;1.13;;;;;;;9.40;70.03;101236.91;4961466;28;20057;-48
2021/11/20 04:08:51;;;;;;;4.00;1.45;;;;;;;9.39;70.52;101241.19;4977314;28;20522;-51
2021/11/20 04:11:23;;;;;;;3.28;1.30;;;;;;;9.41;71.09;101242.94;4978866;28;20101;-48
2021/11/20 04:13:50;;;;;;;4.60;1.20;;;;;;;9.41;70.73;101237.75;4964980;28;20712;-46
2021/11/20 04:16:19;;;;;;;3.42;1.63;;;;;;;9.39;70.12;101241.19;4983145;28;20469;-49
2021/11/20 04:18:45;;;;;;;3.00;1.25;;;;;;;9.39;70.80;101240.31;4979971;28;20046;-46
2021/11/20 04:21:14;;;;;;;5.10;1.27;;;;;;;9.40;70.61;101239.50;4977826;28;20047;-48
2021/11/20 04:23:45;;;;;;;5.88;1.30;;;;;;;9.38;70.93;101234.28;4983489;28;20042;-49
2021/11/20 04:26:15;;;;;;;2.60;1.13;;;;;;;9.39;71.00;101232.56;4979831;28;20062;-51
2021/11/20 04:28:42;;;;;;;3.03;2.13;;;;;;;9.41;70.37;101232.59;4985874;28;20050;-48
2021/11/20 04:31:10;;;;;;;4.78;1.70;;;;;;;9.40;70.59;101236.91;4979803;28;20042;-46
2021/11/20 04:33:37;;;;;;;5.82;1.42;;;;;;;9.40;71.31;101231.72;4980012;28;20059;-49
2021/11/20 04:36:05;;;;;;;4.22;1.00;;;;;;;9.41;70.85;101233.47;4977749;28;20050;-51
2021/11/20 04:38:32;;;;;;;3.40;0.95;;;;;;;9.41;70.92;101227.41;4980828;28;20075;-47
2021/11/20 04:40:58;;;;;;;3.17;1.67;;;;;;;9.41;70.64;101222.25;4984185;28;20046;-51
2021/11/20 04:43:25;;;;;;;2.13;1.02;;;;;;;9.42;71.14;101219.69;4978929;28;20046;-52
2021/11/20 04:45:53;;;;;;;3.35;1.08;;;;;;;9.43;70.80;101221.47;4983602;28;20097;-50
2021/11/20 04:48:20;;;;;;;4.63;1.20;;;;;;;9.43;70.83;101213.69;4977663;28;20051;-48
2021/11/20 04:50:49;;;;;;;3.67;1.10;;;;;;;9.44;71.06;101212.84;4975733;28;21577;-50
2021/11/20 04:53:17;;;;;;;4.95;1.23;;;;;;;9.45;71.07;101217.19;4980622;28;20065;-49
2021/11/20 04:55:44;;;;;;;6.40;1.40;;;;;;;9.45;71.15;101208.53;4980247;28;20105;-47
2021/11/20 04:58:11;;;;;;;3.33;1.13;;;;;;;9.44;70.93;101211.97;4978342;28;20123;-47
2021/11/20 05:00:44;;;;;;;4.15;1.13;;;;;;;9.45;70.72;101214.59;4977006;28;20109;-52
2021/11/20 05:03:11;;;;;;;3.03;1.50;;;;;;;9.43;70.77;101221.47;4976404;28;20099;-51
2021/11/20 05:05:41;;;;;;;3.22;1.23;;;;;;;9.44;71.03;101214.56;4975966;28;20074;-51
2021/11/20 05:08:08;;;;;;;5.07;1.40;;;;;;;9.43;70.64;101211.13;4981345;28;20050;-50
2021/11/20 05:10:36;;;;;;;4.47;1.20;;;;;;;9.44;70.91;101202.50;4973996;28;20066;-50
2021/11/20 05:13:04;;;;;;;5.25;0.98;;;;;;;9.45;70.58;101204.25;4979551;28;20058;-47
2021/11/20 05:15:32;;;;;;;1.98;1.10;;;;;;;9.46;71.20;101200.81;4978743;28;20108;-46
2021/11/20 05:17:59;;;;;;;5.35;1.15;;;;;;;9.46;70.93;101199.97;4977393;28;20395;-48
2021/11/20 05:20:26;;;;;;;3.88;0.93;;;;;;;9.45;71.03;101193.03;4981676;28;20545;-50
2021/11/20 05:22:53;;;;;;;4.95;0.93;;;;;;;9.45;70.88;101191.31;4979428;28;20055;-48
2021/11/20 05:25:20;;;;;;;1.92;0.80;;;;;;;9.45;71.01;101188.72;4983693;28;20058;-49
2021/11/20 05:27:52;;;;;;;2.33;1.23;;;;;;;9.46;70.69;101184.44;4979037;28;20478;-46
2021/11/20 05:30:27;;;;;;;2.30;0.82;;;;;;;9.45;71.08;101188.72;4973911;28;20042;-50
2021/11/20 05:32:56;;;;;;;3.22;0.90;;;;;;;9.46;71.29;101187.88;4979566;28;20046;-48
2021/11/20 05:35:26;;;;;;;3.45;1.42;;;;;;;9.46;70.91;101180.13;4978828;28;20058;-49
2021/11/20 05:37:53;;;;;;;2.38;1.02;;;;;;;9.45;71.24;101178.38;4980231;28;20038;-45
2021/11/20 05:40:20;;;;;;;3.13;1.42;;;;;;;9.46;71.22;101182.72;4975779;28;20077;-47
2021/11/20 05:42:51;;;;;;;3.17;1.30;;;;;;;9.48;71.64;101173.28;4979784;28;20058;-48
2021/11/20 05:45:21;;;;;;;2.47;1.00;;;;;;;9.49;71.42;101182.78;4971457;28;20042;-49
2021/11/20 05:47:48;;;;;;;;;;;;;;;9.38;71.86;101172.22;4977200;28;20051;-46
2021/11/20 05:50:18;;;;;;;4.55;0.95;;;;;;;9.45;71.25;101175.81;4976732;28;19926;-46
2021/11/20 05:52:46;;;;;;;5.18;0.98;;;;;;;9.46;71.26;101174.94;4959451;28;20046;-48
2021/11/20 05:55:14;;;;;;;2.42;0.95;;;;;;;9.47;71.43;101171.53;4980995;28;20093;-46
2021/11/20 05:57:40;;;;;;;3.15;1.25;;;;;;;9.47;71.68;101174.13;4972348;28;20062;-47
2021/11/20 06:00:12;;;;;;;1.38;0.98;;;;;;;9.47;70.95;101171.53;4978041;28;20135;-47
2021/11/20 06:02:39;;;;;;;3.50;0.90;;;;;;;9.48;71.42;101168.13;4975745;28;20594;-48
2021/11/20 06:05:06;;;;;;;1.30;1.00;;;;;;;9.49;71.16;101164.66;4981883;28;20050;-51
2021/11/20 06:07:33;;;;;;;3.42;0.82;;;;;;;9.49;71.62;101166.41;4976017;28;20509;-48
2021/11/20 06:10:00;;;;;;;2.83;0.70;;;;;;;9.49;71.53;101156.06;4979335;28;20050;-47
2021/11/20 06:12:27;;;;;;;2.58;1.13;;;;;;;9.49;71.69;101153.47;4979744;28;20126;-51
2021/11/20 06:14:54;;;;;;;2.70;0.77;;;;;;;9.50;71.26;101156.06;4973190;28;20101;-49
2021/11/20 06:17:20;;;;;;;2.28;0.90;;;;;;;9.49;71.93;101148.31;4979958;28;20054;-47
2021/11/20 06:19:47;;;;;;;2.92;0.65;;;;;;;9.49;71.86;101151.75;4974265;28;20055;-47
2021/11/20 06:22:14;;;;;;;1.67;0.65;;;;;;;9.49;72.03;101137.97;4976857;28;20109;-51
2021/11/20 06:24:40;;;;;;;4.13;1.58;;;;;;;9.50;72.08;101140.56;4980950;28;20050;-49
2021/11/20 06:27:07;;;;;;;3.60;0.95;;;;;;;9.48;71.66;101131.91;4975799;28;20105;-49
2021/11/20 06:29:33;;;;;;;3.33;1.05;;;;;;;9.49;71.49;101132.78;4980714;28;20051;-49
2021/11/20 06:32:00;;;;;;;4.50;1.02;;;;;;;9.47;71.65;101135.34;4975008;28;20063;-53
2021/11/20 06:34:27;;;;;;;3.45;0.70;;;;;;;9.49;71.74;101128.47;4982178;28;20053;-49
2021/11/20 06:36:54;;;;;;;3.70;0.95;;;;;;;9.50;71.59;101121.59;4975052;28;20054;-45
2021/11/20 06:39:21;;;;;;;6.30;1.45;;;;;;;9.50;71.58;101119.00;4978025;28;20047;-47
2021/11/20 06:41:48;;;;;;;2.05;0.80;;;;;;;9.50;71.85;101124.19;4975045;28;20062;-51
2021/11/20 06:44:15;;;;;;;7.38;1.13;;;;;;;9.49;71.58;101128.47;4981019;28;20619;-50
2021/11/20 06:46:41;;;;;;;2.88;0.82;;;;;;;9.52;72.05;101123.34;4982537;28;20043;-51
2021/11/20 06:49:08;;;;;;;2.28;0.82;;;;;;;9.49;71.75;101128.47;4980218;28;20100;-45
2021/11/20 06:51:35;;;;;;;2.47;1.17;;;;;;;9.52;71.99;101128.53;4975707;28;20049;-48
2021/11/20 06:54:01;;;;;;;1.65;0.73;;;;;;;9.51;71.64;101121.63;4973019;28;20051;-49
2021/11/20 06:57:04;;;;;;;6.53;0.82;;;;;;;9.51;71.84;101126.78;4978735;28;20043;-47
2021/11/20 07:02:16;;;;;;;3.72;0.90;;;;;;;9.51;71.91;101116.44;4978586;28;20042;-47
2021/11/20 07:04:43;;;;;;;2.42;1.27;;;;;;;9.51;71.42;101116.44;4975669;28;20046;-49
2021/11/20 07:07:13;;;;;;;6.07;2.67;;;;;;;9.52;72.07;101114.72;4972274;28;20066;-51
2021/11/20 07:09:40;;;;;;;23.45;10.25;;;;;;;9.51;71.71;101111.28;4977764;28;20062;-49
2021/11/20 07:12:08;;;;;;;115.63;53.70;;;;;;;9.52;71.68;101106.97;4976148;28;20050;-50
2021/11/20 07:14:34;;;;;;;40.35;21.17;;;;;;;9.52;71.88;101107.84;4977796;28;20051;-48
2021/11/20 07:17:01;;;;;;;10.52;6.30;;;;;;;9.52;72.58;101107.84;4979332;28;20046;-46
2021/11/20 07:19:30;;;;;;;7.88;4.03;;;;;;;9.55;71.90;101106.16;4985406;28;20043;-48
2021/11/20 07:21:56;;;;;;;5.05;2.35;;;;;;;9.55;72.08;101106.16;4978452;28;20479;-45
2021/11/20 07:24:24;;;;;;;3.55;2.25;;;;;;;9.55;72.15;101106.16;4981009;28;20097;-48
2021/11/20 07:26:51;;;;;;;5.68;2.05;;;;;;;9.55;71.80;101106.16;4983205;28;20051;-49
2021/11/20 07:29:18;;;;;;;6.80;2.58;;;;;;;9.55;72.11;101108.75;4980781;28;20063;-48
2021/11/20 07:31:45;;;;;;;8.00;2.95;;;;;;;9.55;72.13;101106.16;4984807;28;20046;-46
2021/11/20 07:34:13;;;;;;;9.38;2.90;;;;;;;9.54;72.06;101105.28;4979985;28;20050;-52
2021/11/20 07:36:41;;;;;;;11.68;3.78;;;;;;;9.55;72.04;101109.59;4981776;28;20075;-49
2021/11/20 07:39:12;;;;;;;12.07;3.97;;;;;;;9.56;72.31;101106.16;4964016;28;20046;-48
2021/11/20 07:41:39;;;;;;;12.63;3.22;;;;;;;9.58;72.12;101106.19;4979059;28;20058;-48
2021/11/20 07:44:06;;;;;;;5.03;2.13;;;;;;;9.57;71.97;101107.06;4982293;28;20051;-49
2021/11/20 07:46:34;;;;;;;6.28;2.25;;;;;;;9.55;72.09;101108.75;4983412;28;20120;-51
2021/11/20 07:49:01;;;;;;;6.22;1.70;;;;;;;9.54;72.20;101104.41;4986204;28;20106;-46
2021/11/20 07:51:28;;;;;;;9.07;4.80;;;;;;;9.54;72.17;101101.81;4978412;28;20039;-45
2021/11/20 07:53:55;;;;;;;8.73;4.68;;;;;;;9.52;72.13;101097.50;4983549;28;20113;-45
2021/11/20 07:56:22;;;;;;;7.80;3.38;;;;;;;9.55;72.31;101098.41;4975842;28;20510;-49
2021/11/20 07:58:50;;;;;;;8.25;4.18;;;;;;;9.56;72.22;101097.56;4980909;28;20050;-50
2021/11/20 08:01:17;;;;;;;4.25;1.15;;;;;;;9.54;72.32;101100.13;4980996;28;20062;-52
2021/11/20 08:03:44;;;;;;;3.38;0.90;;;;;;;9.55;72.46;101106.16;4982062;28;20078;-47
2021/11/20 08:06:11;;;;;;;2.42;1.05;;;;;;;9.54;72.20;101099.22;4978576;28;20117;-49
2021/11/20 08:08:38;;;;;;;8.68;1.23;;;;;;;9.54;72.54;101100.13;4981999;28;20113;-49
2021/11/20 08:11:05;;;;;;;6.38;0.80;;;;;;;9.53;72.00;101090.63;4975230;28;20047;-48
2021/11/20 08:13:35;;;;;;;2.33;1.42;;;;;;;9.56;72.29;101097.56;4982009;28;20064;-49
2021/11/20 08:16:03;;;;;;;3.72;1.15;;;;;;;9.56;72.21;101097.56;4984607;28;20069;-49
2021/11/20 08:18:30;;;;;;;3.60;1.73;;;;;;;9.56;72.54;101093.25;4976345;28;20066;-50
2021/11/20 08:20:59;;;;;;;4.15;1.88;;;;;;;9.55;72.00;101090.66;4975629;28;20058;-47
2021/11/20 08:23:25;;;;;;;5.40;1.75;;;;;;;9.56;72.22;101092.38;4977633;28;20117;-49
2021/11/20 08:25:52;;;;;;;4.75;1.77;;;;;;;9.58;72.39;101090.69;4976124;28;20047;-53
2021/11/20 08:28:20;;;;;;;4.43;2.58;;;;;;;9.59;72.19;101087.28;4979072;28;20066;-50
2021/11/20 08:30:48;;;;;;;4.45;2.55;;;;;;;9.60;72.53;101079.50;4978835;28;20455;-52
2021/11/20 08:33:15;;;;;;;5.53;1.60;;;;;;;9.60;72.49;101079.50;4977718;28;20054;-48
2021/11/20 08:35:42;;;;;;;3.70;1.75;;;;;;;9.62;72.55;101082.13;4980410;28;20627;-51
2021/11/20 08:38:12;;;;;;;3.47;1.55;;;;;;;9.62;72.51;101075.25;4982316;28;20054;-47
2021/11/20 08:40:42;;;;;;;8.95;2.15;;;;;;;9.62;72.31;101082.13;4975120;28;20051;-49
2021/11/20 08:43:08;;;;;;;6.22;2.45;;;;;;;9.63;72.42;101078.72;4986843;28;20515;-49
2021/11/20 08:45:39;;;;;;;8.02;2.42;;;;;;;9.64;72.80;101076.16;4978387;28;20112;-51
2021/11/20 08:48:06;;;;;;;4.85;1.52;;;;;;;9.66;72.47;101072.72;4981326;28;20050;-51
2021/11/20 08:50:38;;;;;;;1.85;1.05;;;;;;;9.65;72.26;101069.25;4975718;28;20661;-63
2021/11/20 08:53:06;;;;;;;7.10;1.80;;;;;;;9.66;72.27;101067.56;4966797;28;20042;-57
2021/11/20 08:55:33;;;;;;;10.85;2.83;;;;;;;9.67;72.37;101070.19;4980621;28;20050;-46
2021/11/20 08:58:00;;;;;;;27.50;5.80;;;;;;;9.68;72.46;101069.31;4976223;28;20049;-49
2021/11/20 09:00:34;;;;;;;15.95;4.15;;;;;;;9.72;72.41;101068.53;4973822;28;20043;-49
2021/11/20 09:03:24;;;;;;;17.48;5.20;;;;;;;9.69;72.74;101067.63;4973545;28;20058;-51
2021/11/20 09:06:12;;;;;;;17.08;6.20;;;;;;;9.70;72.36;101059.88;4974050;28;20407;-47
2021/11/20 09:08:49;;;;;;;22.52;6.35;;;;;;;9.73;72.05;101059.91;4976256;28;20049;-51
2021/11/20 09:11:39;;;;;;;19.95;7.20;;;;;;;9.76;71.87;101061.66;4979586;28;20129;-47
2021/11/20 09:14:14;;;;;;;7.38;3.40;;;;;;;9.77;72.09;101055.69;4980713;28;20042;-47
2021/11/20 09:16:42;;;;;;;14.05;5.70;;;;;;;9.80;72.26;101060.03;4975328;28;20047;-48
2021/11/20 09:19:10;;;;;;;12.32;2.88;;;;;;;9.81;72.19;101051.41;4974244;28;20081;-49
2021/11/20 09:21:52;;;;;;;6.82;2.97;;;;;;;9.79;72.44;101053.97;4975506;28;20134;-50
2021/11/20 09:24:19;;;;;;;4.50;2.60;;;;;;;9.81;72.62;101054.88;4980931;28;20043;-46
2021/11/20 09:26:46;;;;;;;7.40;1.88;;;;;;;9.82;72.24;101053.16;4977293;28;20422;-47
2021/11/20 09:29:14;;;;;;;9.60;1.90;;;;;;;9.84;72.35;101046.28;4981107;28;20395;-48
2021/11/20 09:31:43;;;;;;;14.13;5.40;;;;;;;9.87;72.38;101046.34;4978315;28;20149;-47
2021/11/20 09:34:10;;;;;;;13.13;4.38;;;;;;;9.88;71.77;101040.31;4978116;28;20403;-48
2021/11/20 09:36:37;;;;;;;7.57;3.13;;;;;;;9.88;71.81;101042.91;4975655;28;20055;-46
2021/11/20 09:39:07;;;;;;;6.22;2.63;;;;;;;9.87;72.01;101036.84;4975867;28;20074;-46
2021/11/20 09:42:00;;;;;;;10.98;3.47;;;;;;;9.84;72.76;101041.13;4981891;28;20061;-46
2021/11/20 09:44:33;;;;;;;7.95;2.85;;;;;;;9.89;72.21;101037.75;4976146;28;20668;-50
2021/11/20 09:47:09;;;;;;;4.85;2.42;;;;;;;9.90;72.39;101036.06;4982769;28;20051;-45
2021/11/20 09:49:41;;;;;;;6.80;1.92;;;;;;;9.91;71.72;101032.63;4979304;28;20047;-52
2021/11/20 09:52:08;;;;;;;6.18;2.70;;;;;;;9.94;71.81;101030.06;4977212;28;20051;-48
2021/11/20 09:54:40;;;;;;;6.50;2.95;;;;;;;9.94;71.84;101032.66;4978532;28;20465;-50
2021/11/20 09:57:30;;;;;;;6.80;2.53;;;;;;;9.92;71.89;101029.16;4962322;28;20104;-46
2021/11/20 10:00:19;;;;;;;8.18;2.92;;;;;;;9.96;72.22;101023.19;4960098;28;20051;-47
2021/11/20 10:02:57;;;;;;;6.63;2.15;;;;;;;9.99;72.04;101019.78;4975448;28;20046;-51
2021/11/20 10:05:29;;;;;;;7.32;2.20;;;;;;;10.01;72.26;101016.38;4976918;28;20433;-52
2021/11/20 10:08:12;;;;;;;6.57;2.20;;;;;;;10.00;71.79;101017.22;4983785;28;20584;-49
2021/11/20 10:10:56;;;;;;;6.38;2.95;;;;;;;10.03;72.56;101017.25;4976777;28;20054;-51
2021/11/20 10:13:30;;;;;;;7.97;2.30;;;;;;;10.07;72.21;101014.72;4979855;28;20037;-49
2021/11/20 10:16:20;;;;;;;7.18;2.78;;;;;;;10.07;72.37;101006.97;4978144;28;20529;-52
2021/11/20 10:18:55;;;;;;;9.93;2.15;;;;;;;10.11;72.25;101006.16;4974142;28;20050;-52
2021/11/20 10:21:34;;;;;;;5.32;2.42;;;;;;;10.14;72.03;101008.81;4971954;28;20047;-50
2021/11/20 10:24:13;;;;;;;7.07;2.67;;;;;;;10.14;72.19;100998.44;4991018;28;20070;-49
2021/11/20 10:26:56;;;;;;;4.40;2.22;;;;;;;10.16;71.83;100992.44;4978448;28;20055;-50
2021/11/20 10:29:47;;;;;;;6.30;2.45;;;;;;;10.15;72.18;100995.88;4972627;28;20113;-47
2021/11/20 10:32:19;;;;;;;8.07;2.58;;;;;;;10.21;71.89;100995.09;4974501;28;20050;-52
2021/11/20 10:34:54;;;;;;;12.05;3.40;;;;;;;10.23;72.34;100980.44;4977637;28;20125;-47
2021/11/20 10:37:33;;;;;;;5.45;2.60;;;;;;;10.28;71.57;100980.50;4972518;28;20058;-49
2021/11/20 10:40:15;;;;;;;11.43;3.33;;;;;;;10.31;72.03;100979.69;4974018;28;20050;-49
2021/11/20 10:42:50;;;;;;;7.68;3.00;;;;;;;10.33;72.24;100978.00;4982014;28;20770;-47
2021/11/20 10:45:21;;;;;;;5.78;2.50;;;;;;;10.32;71.86;100976.22;4973142;28;20101;-49
2021/11/20 10:47:56;;;;;;;7.30;2.38;;;;;;;10.34;71.63;100969.38;4975400;28;20054;-50
2021/11/20 10:50:30;;;;;;;6.43;2.20;;;;;;;10.35;71.28;100961.63;4973797;28;20050;-47
2021/11/20 10:53:23;;;;;;;4.20;1.83;;;;;;;10.34;71.26;100959.00;4998198;28;20054;-48
2021/11/20 10:56:31;;;;;;;6.13;2.33;;;;;;;10.32;72.07;100956.41;4982577;28;20042;-49
2021/11/20 10:59:37;;;;;;;4.15;2.08;;;;;;;10.32;71.96;100956.41;4969205;28;20046;-48
2021/11/20 11:02:25;;;;;;;7.00;2.28;;;;;;;10.36;71.22;100952.13;4979873;28;20058;-47
2021/11/20 11:05:19;;;;;;;7.68;2.40;;;;;;;10.36;71.55;100947.81;4977460;28;20081;-48
2021/11/20 11:08:05;;;;;;;4.00;1.90;;;;;;;10.37;71.69;100939.19;4974490;28;20105;-49
2021/11/20 11:10:45;;;;;;;5.70;2.53;;;;;;;10.37;71.09;100934.00;4988413;28;20050;-48
2021/11/20 11:13:39;;;;;;;8.88;2.67;;;;;;;10.38;71.29;100934.88;4980599;28;20046;-50
2021/11/20 11:16:30;;;;;;;5.80;2.65;;;;;;;10.41;71.77;100940.09;4979026;28;20042;-48
2021/11/20 11:19:08;;;;;;;6.38;2.03;;;;;;;10.46;71.18;100928.09;4984710;28;20104;-45
2021/11/20 11:21:42;;;;;;;9.15;2.22;;;;;;;10.51;71.72;100926.44;4978162;28;20545;-49
2021/11/20 11:24:41;;;;;;;8.60;2.63;;;;;;;10.48;71.31;100921.25;4983819;28;20046;-51
2021/11/20 11:27:48;;;;;;;9.65;3.03;;;;;;;10.49;71.38;100912.59;4972705;28;20445;-50
2021/11/20 11:30:33;;;;;;;5.75;1.67;;;;;;;10.53;71.40;100906.63;4981391;28;20058;-46
2021/11/20 11:32:59;;;;;;;6.47;2.30;;;;;;;10.58;71.49;100905.78;4976217;28;20054;-48
2021/11/20 11:35:30;;;;;;;6.00;2.70;;;;;;;10.59;70.76;100902.34;4977931;28;20050;-46
2021/11/20 11:38:19;;;;;;;7.28;2.92;;;;;;;10.58;71.54;100890.25;4981293;28;20062;-52
2021/11/20 11:41:10;;;;;;;6.80;2.13;;;;;;;10.60;70.55;100883.38;4980684;28;20058;-50
2021/11/20 11:43:43;;;;;;;7.38;2.67;;;;;;;10.65;70.82;100881.69;4965307;28;20050;-50
2021/11/20 11:46:20;;;;;;;6.63;2.15;;;;;;;10.66;70.95;100878.25;4977446;28;20656;-46
2021/11/20 11:49:20;;;;;;;7.75;2.45;;;;;;;10.65;71.20;100873.91;4981546;28;20078;-52
2021/11/20 11:52:00;;;;;;;6.50;2.25;;;;;;;10.66;71.33;100867.88;4976934;28;20046;-51
2021/11/20 11:54:37;;;;;;;7.05;2.40;;;;;;;10.70;70.96;100869.66;4977901;28;20053;-51
2021/11/20 11:57:33;;;;;;;7.22;2.35;;;;;;;10.67;70.24;100860.13;4967592;28;20462;-46
2021/11/20 12:00:18;;;;;;;9.52;2.28;;;;;;;10.70;70.45;100843.72;4977381;28;20450;-51